Time;durP1;ratioP1;P1;durP2;ratioP2;P2;SDS_P1;SDS_P2;PMS_P1;PMS_P2;Temp;Humidity;BMP_temperature;BMP_pressure;BME280_temperature;BME280_humidity;BME280_pressure;Samples;Min_cycle;Max_cycle;Signal;HPM_P1;HPM_P2
2023/02/05 00:00:18;;;;;;;13.07;7.18;;;5.10;99.90;;;;;;4997673;28;20046;-80
2023/02/05 00:02:43;;;;;;;10.30;7.68;;;5.10;99.90;;;;;;5025755;28;20056;-80
2023/02/05 00:05:09;;;;;;;15.48;7.95;;;5.10;99.90;;;;;;4978324;28;20095;-80
2023/02/05 00:07:35;;;;;;;16.35;8.48;;;5.10;99.90;;;;;;4985941;28;20831;-79
2023/02/05 00:10:01;;;;;;;15.52;7.85;;;5.10;99.90;;;;;;4986373;28;20033;-81
2023/02/05 00:12:26;;;;;;;14.45;9.52;;;5.10;99.90;;;;;;5001819;28;20148;-81
2023/02/05 00:14:52;;;;;;;17.35;8.68;;;5.10;99.90;;;;;;4999233;28;20056;-79
2023/02/05 00:17:17;;;;;;;10.23;7.43;;;5.00;99.90;;;;;;4984554;28;20050;-79
2023/02/05 00:19:43;;;;;;;16.55;8.43;;;5.10;99.90;;;;;;5001471;28;20045;-81
2023/02/05 00:22:09;;;;;;;18.00;9.02;;;5.10;99.90;;;;;;4999961;28;20073;-80
2023/02/05 00:24:35;;;;;;;13.32;8.77;;;5.10;99.90;;;;;;4982031;28;20048;-80
2023/02/05 00:27:00;;;;;;;14.68;8.43;;;5.10;99.90;;;;;;5028000;28;20046;-80
2023/02/05 00:29:26;;;;;;;12.32;9.00;;;5.10;99.90;;;;;;4983345;28;20053;-80
2023/02/05 00:31:51;;;;;;;16.30;10.23;;;5.10;99.90;;;;;;5026695;28;20143;-80
2023/02/05 00:34:17;;;;;;;16.20;9.02;;;5.10;99.90;;;;;;4999786;28;20038;-80
2023/02/05 00:36:43;;;;;;;15.93;8.85;;;5.10;99.90;;;;;;4997873;28;20041;-81
2023/02/05 00:39:10;;;;;;;19.90;8.57;;;5.00;99.90;;;;;;4999686;28;20049;-81
2023/02/05 00:41:36;;;;;;;16.95;9.90;;;5.00;99.90;;;;;;4999148;28;22226;-80
2023/02/05 00:44:02;;;;;;;17.17;9.35;;;5.10;99.90;;;;;;4980836;28;20038;-80
2023/02/05 00:46:28;;;;;;;21.08;9.52;;;5.10;99.90;;;;;;4997303;28;20049;-81
2023/02/05 00:48:53;;;;;;;20.88;9.52;;;5.20;99.90;;;;;;4983875;28;20045;-81
2023/02/05 00:51:19;;;;;;;19.35;9.35;;;5.20;99.90;;;;;;4982823;28;20049;-80
2023/02/05 00:53:45;;;;;;;19.90;9.70;;;5.20;99.90;;;;;;4978095;28;20037;-81
2023/02/05 00:56:10;;;;;;;21.30;9.93;;;5.20;99.90;;;;;;4996337;28;20050;-80
2023/02/05 00:58:36;;;;;;;23.85;9.52;;;5.20;99.90;;;;;;4978028;28;20183;-79
2023/02/05 01:01:02;;;;;;;25.73;10.68;;;5.10;99.90;;;;;;4988432;28;20378;-80
2023/02/05 01:03:27;;;;;;;22.15;10.30;;;5.30;99.90;;;;;;4989093;28;20160;-80
2023/02/05 01:05:53;;;;;;;22.15;9.77;;;5.30;99.90;;;;;;4992429;28;20136;-80
2023/02/05 01:08:18;;;;;;;23.23;9.85;;;5.30;99.90;;;;;;4975125;28;20037;-80
2023/02/05 01:10:46;;;;;;;17.15;9.85;;;5.20;99.90;;;;;;4972429;28;20050;-81
2023/02/05 01:13:12;;;;;;;23.25;9.60;;;5.30;99.90;;;;;;4976641;28;20044;-80
2023/02/05 01:15:37;;;;;;;21.20;9.98;;;5.40;99.90;;;;;;4992180;28;20042;-80
2023/02/05 01:18:03;;;;;;;25.30;11.10;;;5.30;99.90;;;;;;4991234;28;20116;-80
2023/02/05 01:20:29;;;;;;;18.73;9.70;;;5.40;99.90;;;;;;4983534;28;20065;-80
2023/02/05 01:22:55;;;;;;;23.58;9.93;;;5.40;99.90;;;;;;4995001;28;20047;-82
2023/02/05 01:25:20;;;;;;;16.58;9.55;;;5.30;99.90;;;;;;4973000;28;20049;-80
2023/02/05 01:27:46;;;;;;;20.30;10.15;;;5.40;99.90;;;;;;4973049;28;20042;-80
2023/02/05 01:30:12;;;;;;;28.20;11.02;;;5.40;99.90;;;;;;4988255;28;20400;-80
2023/02/05 01:32:39;;;;;;;19.45;9.77;;;5.40;99.90;;;;;;4976644;28;20176;-80
2023/02/05 01:35:05;;;;;;;24.02;9.85;;;5.40;99.90;;;;;;4997047;28;20034;-80
2023/02/05 01:37:31;;;;;;;19.13;10.43;;;5.50;99.90;;;;;;4979167;28;20050;-81
2023/02/05 01:39:56;;;;;;;21.65;10.05;;;5.50;99.90;;;;;;4994780;28;20084;-79
2023/02/05 01:42:25;;;;;;;24.13;11.05;;;5.50;99.90;;;;;;5010610;28;20140;-81
2023/02/05 01:45:23;;;;;;;21.00;11.07;;;5.50;99.90;;;;;;4973019;28;20814;-82
2023/02/05 01:47:52;;;;;;;25.67;11.27;;;5.50;99.90;;;;;;4971748;28;20042;-80
2023/02/05 01:50:25;;;;;;;25.63;11.27;;;5.50;99.90;;;;;;4992565;28;21422;-80
2023/02/05 01:52:51;;;;;;;29.88;12.13;;;4.60;99.90;;;;;;4995670;28;20098;-81
2023/02/05 01:55:17;;;;;;;23.00;12.30;;;5.50;99.90;;;;;;4971994;28;21013;-79
2023/02/05 01:57:44;;;;;;;23.75;11.98;;;5.40;99.90;;;;;;4988047;28;20045;-81
2023/02/05 02:00:10;;;;;;;30.10;12.50;;;5.40;99.90;;;;;;4972203;28;20729;-81
2023/02/05 02:02:36;;;;;;;22.35;12.50;;;5.40;99.90;;;;;;4990565;28;20045;-82
2023/02/05 02:05:09;;;;;;;25.05;13.23;;;5.40;99.90;;;;;;4990899;28;20166;-79
2023/02/05 02:07:35;;;;;;;33.15;14.20;;;5.40;99.90;;;;;;4974612;28;20555;-79
2023/02/05 02:10:01;;;;;;;27.90;13.52;;;5.40;99.90;;;;;;4973209;28;20060;-81
2023/02/05 02:12:31;;;;;;;30.88;13.50;;;5.40;99.90;;;;;;4989190;28;20034;-78
2023/02/05 02:15:02;;;;;;;26.55;12.15;;;5.40;99.90;;;;;;4995106;28;20042;-79
2023/02/05 02:17:30;;;;;;;26.33;13.00;;;5.40;99.90;;;;;;4992649;28;20435;-81
2023/02/05 02:20:02;;;;;;;36.25;14.65;;;5.40;99.90;;;;;;4979261;28;21410;-78
2023/02/05 02:23:06;;;;;;;29.33;13.57;;;5.40;99.90;;;;;;5026570;28;20056;-81
2023/02/05 02:25:41;;;;;;;32.03;13.25;;;5.40;99.90;;;;;;4997214;28;20070;-79
2023/02/05 02:28:38;;;;;;;30.63;13.45;;;5.50;99.90;;;;;;5027101;28;20050;-79
2023/02/05 02:31:09;;;;;;;31.70;14.02;;;5.50;99.90;;;;;;4977468;28;20050;-81
2023/02/05 02:33:46;;;;;;;31.15;14.68;;;5.50;99.90;;;;;;4997567;28;20048;-81
2023/02/05 02:36:18;;;;;;;30.20;14.75;;;5.60;99.90;;;;;;5011378;28;20065;-82
2023/02/05 02:39:08;;;;;;;28.55;13.38;;;5.60;99.90;;;;;;4987377;28;20042;-81
2023/02/05 02:41:46;;;;;;;35.53;15.20;;;5.60;99.90;;;;;;4986790;28;20444;-81
2023/02/05 02:44:22;;;;;;;35.92;15.18;;;5.60;99.90;;;;;;5002240;28;20488;-80
2023/02/05 02:46:55;;;;;;;33.30;14.02;;;5.60;99.90;;;;;;5000297;28;20464;-78
2023/02/05 02:49:27;;;;;;;41.50;14.60;;;5.60;99.90;;;;;;4999478;28;20046;-81
2023/02/05 02:51:56;;;;;;;44.22;16.38;;;5.60;99.90;;;;;;4986184;28;20045;-81
2023/02/05 02:54:25;;;;;;;49.40;16.92;;;5.70;99.90;;;;;;4980712;28;20389;-80
2023/02/05 02:56:52;;;;;;;37.83;15.43;;;5.70;99.90;;;;;;4998921;28;20041;-79
2023/02/05 02:59:23;;;;;;;38.10;16.45;;;5.70;99.90;;;;;;4998385;28;20037;-79
2023/02/05 03:01:55;;;;;;;35.83;15.20;;;5.80;99.90;;;;;;4979781;28;20064;-79
2023/02/05 03:04:29;;;;;;;40.38;16.40;;;5.80;99.90;;;;;;4996616;28;20085;-81
2023/02/05 03:07:00;;;;;;;40.47;16.55;;;5.80;99.90;;;;;;4979223;28;20041;-81
2023/02/05 03:09:49;;;;;;;50.95;20.70;;;5.80;99.90;;;;;;4979843;28;20030;-79
2023/02/05 03:12:14;;;;;;;47.22;17.65;;;5.90;99.90;;;;;;4978476;28;20042;-81
2023/02/05 03:14:40;;;;;;;46.22;18.02;;;5.90;99.90;;;;;;4978753;28;20057;-82
2023/02/05 03:17:06;;;;;;;56.92;19.60;;;5.90;99.90;;;;;;4996778;28;20041;-82
2023/02/05 03:19:32;;;;;;;54.38;18.17;;;5.90;99.90;;;;;;4983054;28;20040;-79
2023/02/05 03:22:03;;;;;;;46.10;18.58;;;5.90;99.90;;;;;;4981067;28;20072;-79
2023/02/05 03:24:32;;;;;;;57.92;20.42;;;5.90;99.90;;;;;;4995955;28;20037;-79
2023/02/05 03:26:58;;;;;;;49.10;19.33;;;5.90;99.90;;;;;;5010135;28;20124;-78
2023/02/05 03:29:34;;;;;;;61.22;19.73;;;6.00;99.90;;;;;;4982647;28;20594;-82
2023/02/05 03:32:17;;;;;;;51.55;19.60;;;6.00;99.90;;;;;;5028454;28;20034;-81
2023/02/05 03:34:52;;;;;;;56.88;18.95;;;6.00;99.90;;;;;;4996880;28;20033;-81
2023/02/05 03:37:48;;;;;;;56.47;20.77;;;6.00;99.90;;;;;;4994831;28;20337;-78
2023/02/05 03:40:40;;;;;;;73.72;22.25;;;6.00;99.90;;;;;;4995039;28;20046;-81
2023/02/05 03:43:14;;;;;;;67.38;21.30;;;6.10;99.90;;;;;;4995892;28;20107;-82
2023/02/05 03:45:59;;;;;;;60.22;23.20;;;6.10;99.90;;;;;;4994103;28;20060;-79
2023/02/05 03:48:39;;;;;;;76.78;22.92;;;6.10;99.90;;;;;;4992839;28;20045;-81
2023/02/05 03:51:10;;;;;;;68.70;24.08;;;6.10;99.90;;;;;;4999966;28;20038;-82
2023/02/05 03:53:45;;;;;;;69.00;23.77;;;6.10;99.90;;;;;;4995925;28;20058;-81
2023/02/05 03:56:22;;;;;;;71.05;23.58;;;6.10;99.90;;;;;;5007976;28;20171;-81
2023/02/05 03:58:52;;;;;;;50.88;21.48;;;6.10;99.90;;;;;;4996322;28;20785;-79
2023/02/05 04:01:18;;;;;;;60.30;23.05;;;6.10;99.90;;;;;;4979429;28;20046;-78
2023/02/05 04:03:44;;;;;;;67.28;23.30;;;6.20;99.90;;;;;;4995212;28;20425;-80
2023/02/05 04:06:10;;;;;;;67.25;25.55;;;6.20;99.90;;;;;;4995054;28;20045;-81
2023/02/05 04:08:35;;;;;;;64.65;24.92;;;6.20;99.90;;;;;;4995921;28;20033;-81
2023/02/05 04:11:01;;;;;;;59.38;24.42;;;6.20;99.90;;;;;;4977275;28;20072;-81
2023/02/05 04:13:27;;;;;;;69.38;25.75;;;6.20;99.90;;;;;;4979102;28;20080;-79
2023/02/05 04:15:52;;;;;;;68.00;25.80;;;6.20;99.90;;;;;;4993335;28;20061;-81
2023/02/05 04:18:18;;;;;;;63.47;23.33;;;6.20;99.90;;;;;;4976334;28;20038;-79
2023/02/05 04:20:44;;;;;;;63.25;24.50;;;6.10;99.90;;;;;;4984542;28;20041;-81
2023/02/05 04:23:10;;;;;;;66.05;24.83;;;6.20;99.90;;;;;;5014693;28;20107;-81
2023/02/05 04:25:36;;;;;;;68.25;25.27;;;6.30;99.90;;;;;;5000322;28;20041;-81
2023/02/05 04:28:04;;;;;;;71.28;24.88;;;6.30;99.90;;;;;;5030444;28;20125;-81
2023/02/05 04:30:30;;;;;;;65.38;26.15;;;6.20;99.90;;;;;;5016150;28;20041;-81
2023/02/05 04:32:55;;;;;;;66.57;23.98;;;6.20;99.90;;;;;;5031875;28;20044;-79
2023/02/05 04:35:21;;;;;;;65.07;24.58;;;6.20;99.90;;;;;;4996815;28;20068;-81
2023/02/05 04:37:46;;;;;;;60.85;26.10;;;6.30;99.90;;;;;;4998902;28;20576;-81
2023/02/05 04:40:12;;;;;;;65.35;24.83;;;6.30;99.90;;;;;;4983150;28;20042;-81
2023/02/05 04:42:37;;;;;;;59.50;23.98;;;6.30;99.90;;;;;;4985211;28;20038;-78
2023/02/05 04:45:04;;;;;;;69.13;26.23;;;6.50;99.90;;;;;;4983393;28;20485;-82
2023/02/05 04:47:31;;;;;;;64.25;25.60;;;6.30;99.90;;;;;;4983240;28;20065;-81
2023/02/05 04:49:56;;;;;;;55.80;23.67;;;6.20;99.90;;;;;;4979414;28;20559;-81
2023/02/05 04:52:22;;;;;;;65.65;24.40;;;6.30;99.90;;;;;;4976631;28;20042;-81
2023/02/05 04:54:48;;;;;;;67.68;25.30;;;6.30;99.90;;;;;;4995094;28;20034;-78
2023/02/05 04:57:13;;;;;;;53.33;22.38;;;6.30;99.90;;;;;;4978527;28;20687;-82
2023/02/05 04:59:39;;;;;;;42.88;21.05;;;6.30;99.90;;;;;;4991176;28;20637;-79
2023/02/05 05:02:05;;;;;;;44.15;21.08;;;6.40;99.90;;;;;;4993646;28;20041;-82
2023/02/05 05:04:30;;;;;;;37.20;20.58;;;6.40;99.90;;;;;;4977445;28;20049;-78
2023/02/05 05:06:56;;;;;;;58.05;23.33;;;6.40;99.90;;;;;;4994314;28;20042;-81
2023/02/05 05:09:23;;;;;;;42.63;19.77;;;6.40;99.90;;;;;;4993534;28;20038;-79
2023/02/05 05:11:50;;;;;;;35.30;18.92;;;6.50;99.90;;;;;;4993659;28;22119;-79
2023/02/05 05:14:16;;;;;;;40.08;19.38;;;6.40;99.90;;;;;;5009615;28;20033;-81
2023/02/05 05:16:41;;;;;;;38.00;19.75;;;6.50;99.90;;;;;;4988574;28;20048;-81
2023/02/05 05:19:07;;;;;;;42.95;19.20;;;6.50;99.90;;;;;;4977704;28;20040;-81
2023/02/05 05:21:32;;;;;;;36.60;19.13;;;6.50;99.90;;;;;;5010648;28;20049;-81
2023/02/05 05:23:58;;;;;;;31.30;16.33;;;6.50;99.90;;;;;;4982778;28;20157;-81
2023/02/05 05:26:23;;;;;;;38.90;17.50;;;6.50;99.90;;;;;;4979463;28;20044;-82
2023/02/05 05:28:56;;;;;;;35.75;17.10;;;6.60;99.90;;;;;;4991785;28;20044;-78
2023/02/05 05:31:22;;;;;;;37.75;18.15;;;6.60;99.90;;;;;;4979260;28;20042;-81
2023/02/05 05:33:48;;;;;;;29.13;16.52;;;6.60;99.90;;;;;;4995845;28;20755;-81
2023/02/05 05:36:15;;;;;;;33.80;16.08;;;6.60;99.90;;;;;;4920078;28;20041;-79
2023/02/05 05:38:40;;;;;;;35.17;17.27;;;6.60;99.90;;;;;;4986870;28;20050;-79
2023/02/05 05:43:52;;;;;;;28.45;15.35;;;6.60;99.90;;;;;;4991832;28;20052;-80
2023/02/05 05:46:22;;;;;;;18.35;10.43;;;6.60;99.90;;;;;;4974760;28;20053;-80
2023/02/05 05:48:54;;;;;;;16.13;8.30;;;6.70;99.90;;;;;;4990689;28;20041;-81
2023/02/05 05:51:21;;;;;;;8.10;4.07;;;6.70;99.90;;;;;;5020830;28;20160;-80
2023/02/05 05:53:47;;;;;;;8.10;2.50;;;6.70;99.90;;;;;;4991787;28;20048;-81
2023/02/05 05:56:14;;;;;;;5.95;1.40;;;6.70;99.90;;;;;;4988697;28;20057;-81
2023/02/05 05:58:40;;;;;;;5.13;1.00;;;6.70;99.90;;;;;;4991747;28;20084;-79
2023/02/05 06:01:07;;;;;;;8.68;1.48;;;6.70;99.90;;;;;;4992193;28;20157;-82
2023/02/05 06:03:33;;;;;;;9.85;1.00;;;6.60;99.90;;;;;;5019751;28;20991;-81
2023/02/05 06:06:06;;;;;;;10.98;1.65;;;6.60;99.90;;;;;;4973243;28;20038;-81
2023/02/05 06:08:32;;;;;;;9.88;1.25;;;6.60;99.90;;;;;;4986365;28;20054;-81
2023/02/05 06:10:58;;;;;;;8.52;1.02;;;6.60;99.90;;;;;;5004223;28;20041;-82
2023/02/05 06:13:24;;;;;;;8.82;1.50;;;6.60;99.90;;;;;;4993340;28;20040;-80
2023/02/05 06:15:51;;;;;;;13.88;1.48;;;6.50;99.90;;;;;;4993555;28;20045;-80
2023/02/05 06:18:17;;;;;;;11.52;1.90;;;6.40;99.90;;;;;;4978627;28;20505;-82
2023/02/05 06:20:43;;;;;;;6.22;0.98;;;6.40;99.90;;;;;;4995226;28;20092;-82
2023/02/05 06:23:09;;;;;;;10.10;1.20;;;6.40;99.90;;;;;;4987109;28;20092;-82
2023/02/05 06:25:34;;;;;;;11.02;1.08;;;6.30;99.90;;;;;;4985894;28;20042;-82
2023/02/05 06:28:00;;;;;;;16.27;1.85;;;6.30;99.90;;;;;;4989690;28;20050;-82
2023/02/05 06:30:26;;;;;;;12.63;1.73;;;6.30;99.90;;;;;;4981823;28;20049;-81
2023/02/05 06:32:51;;;;;;;13.25;1.55;;;6.20;99.90;;;;;;4978063;28;20053;-81
2023/02/05 06:35:17;;;;;;;8.00;0.88;;;6.30;99.90;;;;;;4992987;28;20128;-82
2023/02/05 06:37:42;;;;;;;10.55;1.27;;;6.20;99.90;;;;;;4996032;28;20052;-82
2023/02/05 06:40:09;;;;;;;17.10;0.90;;;6.20;99.90;;;;;;4995196;28;20068;-81
2023/02/05 06:42:35;;;;;;;5.75;0.70;;;6.20;99.90;;;;;;4981562;28;20046;-81
2023/02/05 06:45:01;;;;;;;14.45;1.13;;;6.20;99.90;;;;;;4978713;28;20132;-80
2023/02/05 06:47:26;;;;;;;8.73;1.42;;;6.20;99.90;;;;;;5010067;28;20052;-81
2023/02/05 06:49:52;;;;;;;6.78;1.30;;;6.10;99.90;;;;;;4976947;28;20062;-81
2023/02/05 06:52:17;;;;;;;14.73;1.00;;;6.10;99.90;;;;;;4976273;28;20112;-81
2023/02/05 06:54:43;;;;;;;8.52;1.27;;;6.10;99.90;;;;;;4971712;28;20157;-81
2023/02/05 06:57:10;;;;;;;16.30;2.20;;;6.10;99.90;;;;;;4972893;28;20049;-80
2023/02/05 06:59:35;;;;;;;8.80;1.35;;;6.10;99.90;;;;;;4987132;28;20042;-80
2023/02/05 07:02:01;;;;;;;14.18;1.88;;;6.20;99.90;;;;;;4991640;28;20049;-80
2023/02/05 07:04:29;;;;;;;20.30;1.90;;;6.10;99.90;;;;;;5003228;28;20041;-81
2023/02/05 07:06:56;;;;;;;15.15;0.98;;;6.00;99.90;;;;;;4972716;28;20037;-80
2023/02/05 07:09:22;;;;;;;13.48;1.55;;;6.10;99.90;;;;;;4973269;28;20591;-80
2023/02/05 07:11:48;;;;;;;16.70;1.75;;;6.10;99.90;;;;;;4987292;28;20030;-82
2023/02/05 07:14:13;;;;;;;14.43;2.45;;;6.10;99.90;;;;;;4987816;28;21133;-80
2023/02/05 07:16:39;;;;;;;12.30;1.33;;;6.10;99.90;;;;;;4989204;28;20034;-81
2023/02/05 07:19:05;;;;;;;16.58;1.55;;;6.20;99.90;;;;;;4975028;28;20069;-81
2023/02/05 07:21:31;;;;;;;11.98;1.25;;;6.10;99.90;;;;;;4973450;28;20046;-79
2023/02/05 07:23:57;;;;;;;15.80;1.90;;;6.10;99.90;;;;;;4996025;28;20045;-81
2023/02/05 07:26:22;;;;;;;10.18;1.65;;;6.10;99.90;;;;;;4980550;28;20045;-81
2023/02/05 07:28:48;;;;;;;13.20;1.10;;;6.10;99.90;;;;;;4978545;28;20056;-81
2023/02/05 07:31:17;;;;;;;11.85;1.25;;;6.10;99.90;;;;;;5013365;28;20042;-80
2023/02/05 07:33:44;;;;;;;9.85;1.38;;;6.10;99.90;;;;;;4994469;28;20050;-82
2023/02/05 07:36:12;;;;;;;14.07;1.73;;;6.20;99.90;;;;;;4993004;28;20506;-82
2023/02/05 07:38:38;;;;;;;14.13;1.48;;;6.20;99.90;;;;;;4979302;28;20390;-82
2023/02/05 07:41:05;;;;;;;11.32;1.23;;;6.20;99.90;;;;;;4978791;28;20049;-81
2023/02/05 07:43:31;;;;;;;12.48;2.35;;;6.20;99.90;;;;;;4992333;28;20042;-80
2023/02/05 07:46:03;;;;;;;10.50;2.85;;;6.20;99.90;;;;;;4975707;28;20042;-80
2023/02/05 07:48:28;;;;;;;18.70;3.03;;;6.20;99.90;;;;;;4995061;28;20076;-81
2023/02/05 07:50:54;;;;;;;15.98;1.95;;;6.20;99.90;;;;;;4973955;28;20156;-79
2023/02/05 07:53:20;;;;;;;16.90;3.58;;;6.20;99.90;;;;;;4991614;28;20041;-79
2023/02/05 07:55:46;;;;;;;12.32;1.38;;;6.20;99.90;;;;;;4975180;28;20037;-80
2023/02/05 07:58:12;;;;;;;16.40;2.42;;;6.20;99.90;;;;;;4978398;28;20594;-80
2023/02/05 08:00:37;;;;;;;14.18;2.55;;;6.30;99.90;;;;;;4977046;28;20065;-81
2023/02/05 08:03:03;;;;;;;12.50;1.75;;;6.40;99.90;;;;;;4996900;28;20049;-80
2023/02/05 08:05:29;;;;;;;14.45;1.95;;;6.30;99.90;;;;;;4993848;28;20072;-82
2023/02/05 08:07:54;;;;;;;14.05;2.22;;;6.30;99.90;;;;;;4993615;28;20052;-79
2023/02/05 08:10:20;;;;;;;13.20;2.00;;;6.40;99.90;;;;;;4978043;28;20045;-82
2023/02/05 08:12:51;;;;;;;18.50;2.30;;;6.40;99.90;;;;;;5008787;28;20048;-80
2023/02/05 08:15:21;;;;;;;11.05;1.60;;;6.40;99.90;;;;;;4976577;28;20077;-81
2023/02/05 08:17:47;;;;;;;19.88;2.28;;;6.40;99.90;;;;;;4979493;28;20057;-83
2023/02/05 08:20:12;;;;;;;24.25;2.63;;;6.40;99.90;;;;;;5001610;28;20053;-82
2023/02/05 08:22:40;;;;;;;18.10;2.30;;;6.40;99.90;;;;;;4987463;28;20708;-83
2023/02/05 08:25:10;;;;;;;14.38;1.80;;;6.40;99.90;;;;;;4999695;28;20037;-82
2023/02/05 08:28:28;;;;;;;18.65;2.65;;;6.40;99.90;;;;;;4988603;28;20064;-86
2023/02/05 08:31:12;;;;;;;16.83;2.00;;;6.50;99.90;;;;;;5006185;28;20406;-86
2023/02/05 08:33:39;;;;;;;16.02;1.80;;;6.40;99.90;;;;;;5003127;28;20042;-84
2023/02/05 08:36:06;;;;;;;15.38;2.47;;;7.10;99.90;;;;;;4981611;28;20034;-84
2023/02/05 08:38:31;;;;;;;22.27;3.40;;;6.40;99.90;;;;;;4995922;28;20053;-82
2023/02/05 08:40:57;;;;;;;19.92;2.63;;;6.40;99.90;;;;;;4995164;28;20501;-83
2023/02/05 08:43:23;;;;;;;19.25;3.13;;;6.40;99.90;;;;;;4980445;28;20583;-82
2023/02/05 08:45:48;;;;;;;21.15;2.80;;;6.50;99.90;;;;;;4993757;28;20049;-83
2023/02/05 08:48:14;;;;;;;18.88;2.83;;;6.40;99.90;;;;;;4995609;28;20077;-83
2023/02/05 08:50:40;;;;;;;20.48;3.20;;;6.40;99.90;;;;;;4977076;28;20036;-84
2023/02/05 08:53:06;;;;;;;17.17;2.97;;;6.50;99.90;;;;;;4999247;28;20042;-82
2023/02/05 08:55:32;;;;;;;12.57;2.15;;;6.50;99.90;;;;;;4977790;28;20064;-85
2023/02/05 08:57:58;;;;;;;19.77;1.90;;;6.50;99.90;;;;;;4994955;28;20041;-80
2023/02/05 09:00:23;;;;;;;24.67;4.53;;;6.50;99.90;;;;;;4994435;28;20049;-79
2023/02/05 09:02:49;;;;;;;20.00;2.78;;;6.50;99.90;;;;;;4977990;28;20050;-81
2023/02/05 09:05:15;;;;;;;22.35;3.05;;;6.50;99.90;;;;;;4992406;28;20558;-81
2023/02/05 09:07:41;;;;;;;17.42;2.85;;;6.60;99.90;;;;;;4992119;28;20042;-81
2023/02/05 09:10:09;;;;;;;22.83;3.38;;;6.50;99.90;;;;;;4991979;28;20030;-82
2023/02/05 09:12:34;;;;;;;34.03;4.38;;;6.60;99.90;;;;;;4990491;28;20042;-82
2023/02/05 09:15:00;;;;;;;25.30;3.60;;;6.60;99.90;;;;;;4991570;28;20191;-80
2023/02/05 09:17:26;;;;;;;19.13;3.78;;;6.60;99.90;;;;;;4977983;28;20045;-81
2023/02/05 09:19:51;;;;;;;26.30;3.78;;;6.70;99.90;;;;;;4979666;28;20046;-80
2023/02/05 09:22:17;;;;;;;22.08;3.22;;;6.70;99.90;;;;;;5010351;28;20046;-81
2023/02/05 09:24:42;;;;;;;21.45;3.72;;;6.70;99.90;;;;;;4993316;28;20100;-80
2023/02/05 09:27:12;;;;;;;26.60;3.65;;;6.70;99.90;;;;;;4979901;28;20072;-81
2023/02/05 09:29:39;;;;;;;23.63;3.03;;;6.70;99.90;;;;;;4993483;28;20050;-81
2023/02/05 09:32:04;;;;;;;20.17;4.00;;;6.70;99.90;;;;;;4978245;28;20038;-81
2023/02/05 09:34:31;;;;;;;19.98;2.70;;;6.70;99.90;;;;;;4990389;28;20042;-83
2023/02/05 09:36:56;;;;;;;24.17;3.30;;;6.80;99.90;;;;;;4989752;28;20123;-82
2023/02/05 09:39:22;;;;;;;19.30;3.55;;;6.80;99.90;;;;;;4972834;28;20057;-82
2023/02/05 09:42:15;;;;;;;24.70;3.13;;;6.80;99.90;;;;;;4990615;28;20130;-83
2023/02/05 09:44:59;;;;;;;22.48;4.00;;;6.80;99.90;;;;;;5006744;28;20046;-83
2023/02/05 09:48:00;;;;;;;22.60;3.17;;;6.80;99.90;;;;;;4990218;28;21017;-82
2023/02/05 09:50:30;;;;;;;24.40;4.05;;;6.80;99.90;;;;;;4989422;28;20449;-82
2023/02/05 09:53:01;;;;;;;20.65;3.15;;;6.80;99.90;;;;;;4975779;28;20073;-83
2023/02/05 09:55:30;;;;;;;19.65;3.15;;;6.80;99.90;;;;;;4975608;28;20137;-84
2023/02/05 09:58:01;;;;;;;15.80;2.97;;;7.00;99.90;;;;;;4977422;28;20048;-85
2023/02/05 10:00:48;;;;;;;21.38;3.80;;;7.10;99.90;;;;;;4978736;28;20177;-85
2023/02/05 10:03:49;;;;;;;22.70;3.83;;;7.10;99.90;;;;;;4979555;28;20598;-81
2023/02/05 10:06:20;;;;;;;14.73;2.20;;;7.20;99.90;;;;;;4953663;28;20049;-84
2023/02/05 10:09:15;;;;;;;16.00;2.28;;;7.30;99.90;;;;;;4995001;28;20057;-80
2023/02/05 10:11:53;;;;;;;16.88;3.70;;;7.40;99.90;;;;;;4992065;28;20042;-81
2023/02/05 10:14:45;;;;;;;16.33;2.58;;;7.40;99.90;;;;;;5022839;28;20229;-81
2023/02/05 10:17:29;;;;;;;14.30;2.75;;;7.50;99.90;;;;;;4993658;28;20121;-81
2023/02/05 10:20:19;;;;;;;19.23;2.67;;;7.50;99.90;;;;;;4977828;28;20067;-81
2023/02/05 10:22:51;;;;;;;25.23;2.83;;;7.60;99.90;;;;;;4998335;28;20046;-81
2023/02/05 10:25:53;;;;;;;20.10;2.70;;;7.70;99.90;;;;;;4996634;28;20634;-81
2023/02/05 10:28:57;;;;;;;21.30;3.20;;;7.80;99.90;;;;;;4975299;28;20050;-82
2023/02/05 10:31:43;;;;;;;24.52;4.65;;;7.80;99.90;;;;;;4981962;28;20408;-81
2023/02/05 10:34:29;;;;;;;18.33;4.53;;;7.90;99.90;;;;;;5010572;28;20041;-81
2023/02/05 10:36:54;;;;;;;27.05;4.28;;;7.80;99.90;;;;;;4996704;28;20048;-80
2023/02/05 10:39:25;;;;;;;25.25;4.30;;;7.80;99.90;;;;;;4982426;28;20034;-82
2023/02/05 10:41:58;;;;;;;28.50;4.82;;;7.90;99.90;;;;;;5011102;28;20046;-81
2023/02/05 10:44:37;;;;;;;31.42;4.38;;;7.90;99.90;;;;;;4983490;28;20052;-80
2023/02/05 10:47:14;;;;;;;28.10;5.18;;;7.90;99.90;;;;;;4980933;28;20148;-79
2023/02/05 10:49:52;;;;;;;20.33;4.28;;;7.90;99.90;;;;;;4993556;28;20042;-79
2023/02/05 10:52:18;;;;;;;22.73;3.60;;;7.80;99.90;;;;;;4991537;28;20061;-79
2023/02/05 10:54:45;;;;;;;17.75;2.80;;;7.70;99.90;;;;;;4974532;28;20045;-82
2023/02/05 10:57:16;;;;;;;19.20;3.65;;;7.70;99.90;;;;;;4993286;28;20449;-81
2023/02/05 10:59:57;;;;;;;21.63;3.20;;;7.80;99.90;;;;;;5010095;28;20042;-82
2023/02/05 11:02:31;;;;;;;14.13;2.42;;;8.20;99.90;;;;;;4993637;28;20129;-80
2023/02/05 11:05:37;;;;;;;17.70;1.95;;;7.80;99.90;;;;;;4976210;28;20037;-79
2023/02/05 11:08:03;;;;;;;14.73;2.53;;;7.80;99.90;;;;;;4979416;28;20088;-80
2023/02/05 11:10:31;;;;;;;18.25;2.58;;;7.80;99.90;;;;;;4978436;28;20481;-82
2023/02/05 11:13:17;;;;;;;24.85;3.15;;;7.80;99.90;;;;;;4980218;28;20046;-79
2023/02/05 11:15:54;;;;;;;15.93;2.83;;;7.70;99.90;;;;;;5025771;28;20128;-79
2023/02/05 11:18:27;;;;;;;22.52;3.42;;;7.80;99.90;;;;;;4995053;28;20045;-81
2023/02/05 11:21:01;;;;;;;20.23;2.83;;;7.80;99.90;;;;;;4998704;28;20056;-82
2023/02/05 11:23:38;;;;;;;30.55;3.95;;;7.90;99.90;;;;;;4995745;28;20034;-83
2023/02/05 11:26:20;;;;;;;18.73;3.10;;;8.50;99.90;;;;;;4996783;28;20103;-84
2023/02/05 11:28:52;;;;;;;20.30;3.42;;;8.50;99.90;;;;;;4972397;28;20045;-84
2023/02/05 11:31:24;;;;;;;28.63;5.68;;;8.50;99.90;;;;;;4992050;28;20634;-83
2023/02/05 11:33:50;;;;;;;25.80;5.05;;;8.70;99.90;;;;;;4977647;28;20052;-84
2023/02/05 11:36:20;;;;;;;25.35;3.90;;;8.70;99.90;;;;;;4992064;28;20097;-82
2023/02/05 11:38:50;;;;;;;20.60;4.38;;;8.80;99.90;;;;;;4996819;28;20125;-80
2023/02/05 11:41:48;;;;;;;28.15;4.30;;;8.90;99.90;;;;;;4997199;28;20074;-81
2023/02/05 11:44:24;;;;;;;27.77;4.90;;;9.00;99.90;;;;;;4992228;28;20186;-80
2023/02/05 11:46:56;;;;;;;22.63;3.67;;;9.80;99.90;;;;;;4995832;28;20046;-82
2023/02/05 11:49:27;;;;;;;26.67;4.38;;;9.20;99.90;;;;;;4983041;28;20049;-82
2023/02/05 11:51:55;;;;;;;20.95;4.00;;;9.30;99.90;;;;;;4997891;28;20106;-82
2023/02/05 11:54:31;;;;;;;24.58;5.55;;;9.30;99.90;;;;;;5002273;28;20571;-81
2023/02/05 11:57:18;;;;;;;24.60;4.30;;;9.30;99.90;;;;;;4996747;28;20035;-81
2023/02/05 12:00:16;;;;;;;26.25;5.07;;;9.10;99.90;;;;;;4996613;28;21084;-78
2023/02/05 12:02:42;;;;;;;26.55;4.07;;;9.20;99.90;;;;;;4994930;28;20148;-79
2023/02/05 12:05:11;;;;;;;23.95;5.30;;;9.20;99.90;;;;;;4981061;28;20434;-82
2023/02/05 12:08:02;;;;;;;28.95;5.68;;;9.10;99.90;;;;;;5004283;28;20073;-82
2023/02/05 12:10:42;;;;;;;29.10;5.35;;;9.10;99.90;;;;;;4988741;28;20050;-81
2023/02/05 12:13:30;;;;;;;28.50;4.30;;;8.90;99.90;;;;;;4980357;28;20042;-82
2023/02/05 12:16:15;;;;;;;23.00;4.35;;;9.00;99.90;;;;;;4996792;28;20068;-80
2023/02/05 12:18:52;;;;;;;26.67;4.43;;;8.90;99.90;;;;;;4998667;28;20128;-82
2023/02/05 12:21:30;;;;;;;20.63;5.07;;;9.00;99.90;;;;;;4997452;28;20503;-84
2023/02/05 12:23:58;;;;;;;23.85;4.30;;;8.90;99.90;;;;;;4998107;28;20519;-79
2023/02/05 12:26:34;;;;;;;30.35;5.22;;;9.00;99.90;;;;;;4979937;28;20052;-78
2023/02/05 12:29:11;;;;;;;21.88;4.70;;;9.00;99.90;;;;;;4979675;28;20050;-81
2023/02/05 12:31:58;;;;;;;27.10;4.85;;;9.00;99.90;;;;;;4995539;28;20089;-82
2023/02/05 12:34:24;;;;;;;;;;;9.00;99.90;;;;;;4981208;28;20042;-78
2023/02/05 12:36:57;;;;;;;26.48;5.32;;;9.10;99.90;;;;;;4982229;28;19960;-82
2023/02/05 12:39:47;;;;;;;26.50;4.25;;;9.00;99.90;;;;;;4981200;28;20053;-82
2023/02/05 12:42:25;;;;;;;19.80;4.60;;;9.10;99.90;;;;;;4997699;28;20133;-83
2023/02/05 12:45:21;;;;;;;25.27;5.72;;;9.00;99.90;;;;;;4997952;28;20046;-81
2023/02/05 12:47:52;;;;;;;;;;;9.00;99.90;;;;;;4995406;28;20085;-83
2023/02/05 12:50:34;;;;;;;32.65;5.85;;;9.00;99.90;;;;;;4991981;28;20126;-81
2023/02/05 12:53:26;;;;;;;26.05;3.95;;;9.00;99.90;;;;;;4978124;28;20058;-82
2023/02/05 12:56:13;;;;;;;24.23;4.70;;;9.00;99.90;;;;;;5023612;28;20046;-82
2023/02/05 12:58:48;;;;;;;23.38;5.15;;;9.00;99.90;;;;;;4973518;28;20175;-82
2023/02/05 13:01:20;;;;;;;28.45;4.30;;;9.00;99.90;;;;;;4990598;28;20046;-83
2023/02/05 13:03:58;;;;;;;27.50;5.57;;;9.00;99.90;;;;;;4985546;28;20041;-81
2023/02/05 13:06:40;;;;;;;30.88;6.03;;;8.90;99.90;;;;;;4973109;28;20468;-81